createdAt,value
2018-09-24T00:03:15.593Z,88.80
2018-09-24T00:09:20.509Z,88.25
2018-09-24T00:15:25.393Z,87.82
2018-09-24T00:21:30.440Z,87.61
2018-09-24T00:27:35.703Z,88.00
2018-09-24T00:33:40.585Z,87.66
2018-09-24T00:39:45.232Z,87.08
2018-09-24T00:45:49.929Z,87.25
2018-09-24T00:51:54.513Z,86.50
2018-09-24T00:57:59.085Z,86.19
2018-09-24T01:04:03.661Z,85.59
2018-09-24T01:10:08.738Z,85.85
2018-09-24T01:16:13.328Z,85.28
2018-09-24T01:22:17.911Z,86.05
2018-09-24T01:28:22.521Z,87.85
2018-09-24T01:34:27.123Z,88.10
2018-09-24T01:40:31.689Z,87.50
2018-09-24T01:46:37.242Z,88.81
2018-09-24T01:52:42.123Z,89.41
2018-09-24T01:58:46.737Z,89.04
2018-09-24T02:04:51.596Z,88.55
2018-09-24T02:10:56.547Z,87.87
2018-09-24T02:17:01.118Z,87.70
2018-09-24T02:23:05.756Z,87.33
2018-09-24T02:29:10.903Z,87.89
2018-09-24T02:35:15.788Z,87.36
2018-09-24T02:41:20.730Z,88.56
2018-09-24T02:47:26.046Z,88.90
2018-09-24T02:53:40.497Z,89.51
2018-09-24T02:59:46.860Z,89.83
2018-09-24T03:05:51.477Z,89.99
2018-09-24T03:11:56.482Z,89.93
2018-09-24T03:18:01.080Z,89.99
2018-09-24T03:24:06.120Z,89.54
2018-09-24T03:30:11.118Z,89.15
2018-09-24T03:36:16.088Z,89.20
2018-09-24T03:42:20.739Z,89.97
2018-09-24T03:48:25.690Z,90.32
2018-09-24T03:54:30.595Z,89.29
2018-09-24T04:00:35.174Z,89.43
2018-09-24T04:06:45.222Z,88.74
2018-09-24T04:12:55.099Z,88.43
2018-09-24T04:19:04.763Z,89.18
2018-09-24T04:25:14.575Z,88.47
2018-09-24T04:31:24.298Z,88.46
2018-09-24T04:37:34.425Z,88.18
2018-09-24T04:43:44.588Z,87.91
2018-09-24T04:49:54.296Z,87.55
2018-09-24T04:56:04.413Z,87.32
2018-09-24T05:02:14.544Z,87.02
2018-09-24T05:08:24.195Z,87.05
2018-09-24T05:14:34.767Z,86.97
2018-09-24T05:20:44.485Z,86.96
2018-09-24T05:26:54.225Z,87.29
2018-09-24T05:33:04.021Z,87.06
2018-09-24T05:39:15.296Z,86.49
2018-09-24T05:45:24.992Z,86.46
2018-09-24T05:51:35.133Z,86.29
2018-09-24T05:57:44.795Z,85.67
2018-09-24T06:03:54.933Z,85.55
2018-09-24T06:10:04.927Z,84.85
2018-09-24T06:16:15.160Z,84.31
2018-09-24T06:22:25.225Z,84.39
2018-09-24T06:28:34.961Z,83.15
2018-09-24T06:34:44.680Z,83.32
2018-09-24T06:40:54.253Z,82.71
2018-09-24T06:47:04.140Z,80.68
2018-09-24T06:53:14.232Z,80.82
2018-09-24T06:59:24.222Z,79.48
2018-09-24T07:05:34.149Z,79.44
2018-09-24T07:11:43.907Z,79.47
2018-09-24T07:17:54.104Z,79.64
2018-09-24T07:24:04.006Z,74.73
2018-09-24T07:30:14.311Z,76.52
2018-09-24T07:36:24.119Z,74.34
2018-09-24T07:42:33.910Z,76.29
2018-09-24T07:48:43.483Z,74.32
2018-09-24T07:54:53.225Z,73.39
2018-09-24T08:01:03.023Z,71.30
2018-09-24T08:07:13.200Z,70.81
2018-09-24T08:13:22.927Z,69.20
2018-09-24T08:19:32.690Z,65.41
2018-09-24T08:25:42.566Z,64.81
2018-09-24T08:31:52.208Z,61.19
2018-09-24T08:38:01.916Z,58.99
2018-09-24T08:44:11.758Z,53.54
2018-09-24T08:50:21.630Z,54.14
2018-09-24T08:56:31.387Z,52.06
2018-09-24T09:02:48.077Z,55.57
2018-09-24T09:08:57.776Z,58.33
2018-09-24T09:15:07.700Z,56.54
2018-09-24T09:21:17.787Z,54.38
2018-09-24T09:27:27.616Z,50.89
2018-09-24T09:33:37.588Z,49.14
2018-09-24T09:39:47.697Z,51.40
2018-09-24T09:45:57.532Z,50.87
2018-09-24T09:52:07.511Z,49.98
2018-09-24T09:58:17.889Z,47.83
2018-09-24T10:04:27.572Z,48.52
2018-09-24T10:10:37.209Z,48.77
2018-09-24T10:16:46.908Z,47.26
2018-09-24T10:22:56.940Z,53.65
2018-09-24T10:29:06.739Z,53.88
2018-09-24T10:35:17.006Z,54.60
2018-09-24T10:41:26.843Z,59.38
2018-09-24T10:47:36.482Z,54.64
2018-09-24T10:53:46.303Z,56.60
2018-09-24T10:59:56.076Z,58.85
2018-09-24T11:06:05.693Z,62.83
2018-09-24T11:12:15.745Z,56.20
2018-09-24T11:18:25.477Z,49.34
2018-09-24T11:24:35.202Z,51.35
2018-09-24T11:30:44.836Z,60.91
2018-09-24T11:36:54.524Z,53.95
2018-09-24T11:43:04.655Z,53.45
2018-09-24T11:49:14.713Z,55.63
2018-09-24T11:55:24.592Z,56.13
2018-09-24T12:01:34.485Z,58.07
2018-09-24T12:07:44.186Z,63.13
2018-09-24T12:13:54.628Z,70.98
2018-09-24T12:20:04.705Z,73.39
2018-09-24T12:26:14.632Z,73.62
2018-09-24T12:32:24.428Z,61.76
2018-09-24T12:38:34.313Z,48.82
2018-09-24T12:44:44.163Z,42.97
2018-09-24T12:50:53.896Z,50.05
2018-09-24T12:57:04.025Z,50.60
2018-09-24T13:03:13.803Z,47.00
2018-09-24T13:09:23.560Z,50.10
2018-09-24T13:15:33.382Z,50.80
2018-09-24T13:21:43.431Z,53.08
2018-09-24T13:27:53.260Z,54.49
2018-09-24T13:34:02.892Z,53.91
2018-09-24T13:40:12.822Z,56.07
2018-09-24T13:46:22.625Z,58.39
2018-09-24T13:52:32.160Z,56.98
2018-09-24T13:58:41.990Z,61.92
2018-09-24T14:04:51.680Z,65.17
2018-09-24T14:11:01.464Z,66.47
2018-09-24T14:17:11.642Z,67.72
2018-09-24T14:23:21.405Z,68.82
2018-09-24T14:29:31.780Z,68.21
2018-09-24T14:35:41.518Z,69.15
2018-09-24T14:41:51.961Z,67.99
2018-09-24T14:48:01.715Z,60.86
2018-09-24T14:54:11.853Z,61.18
2018-09-24T15:00:21.717Z,67.08
2018-09-24T15:06:31.551Z,67.50
2018-09-24T15:12:41.289Z,64.88
2018-09-24T15:18:51.350Z,54.29
2018-09-24T15:25:01.399Z,54.69
2018-09-24T15:31:11.178Z,53.88
2018-09-24T15:37:20.757Z,58.50
2018-09-24T15:43:31.146Z,56.75
2018-09-24T15:49:41.421Z,50.93
2018-09-24T15:55:51.039Z,51.40
2018-09-24T16:02:00.907Z,51.97
2018-09-24T16:08:10.738Z,57.36
2018-09-24T16:14:20.701Z,65.52
2018-09-24T16:20:30.672Z,67.06
2018-09-24T16:26:40.499Z,69.25
2018-09-24T16:32:50.235Z,72.77
2018-09-24T16:38:59.938Z,75.00
2018-09-24T16:45:10.096Z,76.27
2018-09-24T16:51:19.755Z,76.30
2018-09-24T16:57:29.315Z,77.84
2018-09-24T17:03:39.146Z,78.12
2018-09-24T17:09:48.669Z,77.74
2018-09-24T17:15:58.382Z,78.47
2018-09-24T17:22:08.123Z,78.31
2018-09-24T17:28:18.160Z,78.42
2018-09-24T17:34:27.957Z,78.16
2018-09-24T17:40:37.612Z,77.44
2018-09-24T17:46:47.448Z,77.09
2018-09-24T17:52:57.454Z,77.43
2018-09-24T17:59:07.545Z,78.29
2018-09-24T18:05:17.737Z,78.90
2018-09-24T18:11:27.420Z,79.29
2018-09-24T18:17:37.155Z,79.92
2018-09-24T18:23:47.351Z,80.57
2018-09-24T18:29:57.102Z,80.63
2018-09-24T18:36:06.822Z,80.02
2018-09-24T18:42:16.627Z,79.87
2018-09-24T18:48:26.360Z,78.98
2018-09-24T18:54:36.100Z,78.97
2018-09-24T19:00:46.058Z,79.03
2018-09-24T19:06:55.870Z,78.87
2018-09-24T19:13:05.574Z,79.38
2018-09-24T19:19:15.275Z,79.59
2018-09-24T19:25:25.388Z,79.32
2018-09-24T19:31:35.264Z,78.57
2018-09-24T19:37:44.985Z,78.86
2018-09-24T19:43:54.728Z,79.38
2018-09-24T19:50:04.700Z,79.91
2018-09-24T19:56:14.398Z,80.63
2018-09-24T20:02:24.307Z,81.71
2018-09-24T20:08:33.874Z,81.06
2018-09-24T20:14:43.663Z,81.20
2018-09-24T20:20:53.787Z,81.63
2018-09-24T20:27:03.563Z,82.68
2018-09-24T20:33:13.249Z,82.44
2018-09-24T20:39:22.967Z,82.67
2018-09-24T20:45:32.717Z,82.50
2018-09-24T20:51:42.582Z,81.69
2018-09-24T20:57:52.624Z,82.40
2018-09-24T21:04:02.620Z,81.95
2018-09-24T21:10:12.701Z,83.36
2018-09-24T21:16:22.260Z,83.46
2018-09-24T21:22:32.099Z,83.70
2018-09-24T21:28:41.842Z,83.73
2018-09-24T21:34:51.513Z,83.62
2018-09-24T21:41:01.275Z,83.47
2018-09-24T21:47:11.167Z,83.45
2018-09-24T21:53:20.793Z,82.69
2018-09-24T21:59:30.594Z,83.53
2018-09-24T22:05:40.993Z,83.89
2018-09-24T22:11:50.832Z,84.49
2018-09-24T22:18:00.889Z,85.07
2018-09-24T22:24:10.984Z,85.62
2018-09-24T22:30:20.818Z,85.91
2018-09-24T22:36:30.477Z,85.68
2018-09-24T22:42:40.121Z,86.37
2018-09-24T22:48:49.856Z,87.14
2018-09-24T22:54:59.909Z,86.60
2018-09-24T23:01:10.077Z,87.05
2018-09-24T23:07:19.933Z,86.85
2018-09-24T23:13:29.666Z,87.53
2018-09-24T23:19:39.338Z,87.69
2018-09-24T23:25:49.088Z,87.74
2018-09-24T23:31:58.805Z,87.59
2018-09-24T23:38:08.467Z,88.01
2018-09-24T23:44:18.497Z,88.55
2018-09-24T23:50:28.356Z,88.09
2018-09-24T23:56:38.414Z,88.36
